createdAt,value
2023-04-22T00:00:08.830Z,10.00
2023-04-22T00:02:36.002Z,10.00
2023-04-22T00:05:03.346Z,9.90
2023-04-22T00:07:32.005Z,9.90
2023-04-22T00:09:59.060Z,9.80
2023-04-22T00:12:26.064Z,9.80
2023-04-22T00:14:52.963Z,9.70
2023-04-22T00:17:19.949Z,9.70
2023-04-22T00:19:46.872Z,9.70
2023-04-22T00:22:13.683Z,9.80
2023-04-22T00:24:42.119Z,9.80
2023-04-22T00:27:09.004Z,9.80
2023-04-22T00:29:36.247Z,9.80
2023-04-22T00:32:03.420Z,9.80
2023-04-22T00:34:30.285Z,9.80
2023-04-22T00:36:57.228Z,9.80
2023-04-22T00:39:24.071Z,9.80
2023-04-22T00:41:52.630Z,9.80
2023-04-22T00:44:19.679Z,9.80
2023-04-22T00:46:46.841Z,9.80
2023-04-22T00:49:14.833Z,9.70
2023-04-22T00:51:41.685Z,9.70
2023-04-22T00:54:08.529Z,9.80
2023-04-22T00:56:38.056Z,9.80
2023-04-22T00:59:07.257Z,9.80
2023-04-22T01:01:34.706Z,9.70
2023-04-22T01:04:03.287Z,9.70
2023-04-22T01:06:30.734Z,9.70
2023-04-22T01:08:58.171Z,9.70
2023-04-22T01:11:25.126Z,9.70
2023-04-22T01:13:52.207Z,9.60
2023-04-22T01:16:21.498Z,9.60
2023-04-22T01:18:48.563Z,9.60
2023-04-22T01:21:15.395Z,9.50
2023-04-22T01:23:43.904Z,9.50
2023-04-22T01:26:10.857Z,9.50
2023-04-22T01:28:37.922Z,9.40
2023-04-22T01:31:05.017Z,9.40
2023-04-22T01:33:32.140Z,9.40
2023-04-22T01:35:58.994Z,9.30
2023-04-22T01:38:26.058Z,9.30
2023-04-22T01:40:54.497Z,9.20
2023-04-22T01:43:21.629Z,9.20
2023-04-22T01:45:48.471Z,9.20
2023-04-22T01:48:15.434Z,9.20
2023-04-22T01:50:42.461Z,9.10
2023-04-22T01:53:09.750Z,9.10
2023-04-22T01:55:37.758Z,9.10
2023-04-22T01:58:06.002Z,9.10
2023-04-22T02:00:33.139Z,9.00
2023-04-22T02:03:00.112Z,9.00
2023-04-22T02:05:28.188Z,9.00
2023-04-22T02:07:55.211Z,9.00
2023-04-22T02:10:22.048Z,8.90
2023-04-22T02:12:51.698Z,8.90
2023-04-22T02:15:19.989Z,8.90
2023-04-22T02:17:46.759Z,8.80
2023-04-22T02:20:13.613Z,8.80
2023-04-22T02:22:41.997Z,8.70
2023-04-22T02:25:10.066Z,8.70
2023-04-22T02:27:36.867Z,8.70
2023-04-22T02:30:04.618Z,8.60
2023-04-22T02:32:32.879Z,8.60
2023-04-22T02:34:59.699Z,8.50
2023-04-22T02:37:26.592Z,8.50
2023-04-22T02:39:53.424Z,8.40
2023-04-22T02:42:20.264Z,8.40
2023-04-22T02:44:47.122Z,8.30
2023-04-22T02:47:13.894Z,8.30
2023-04-22T02:49:42.431Z,8.20
2023-04-22T02:52:09.364Z,8.10
2023-04-22T02:54:36.311Z,8.10
2023-04-22T02:57:03.277Z,8.10
2023-04-22T02:59:31.449Z,8.00
2023-04-22T03:01:58.385Z,8.00
2023-04-22T03:04:25.683Z,8.00
2023-04-22T03:06:54.117Z,7.90
2023-04-22T03:09:21.015Z,7.90
2023-04-22T03:11:48.161Z,7.90
2023-04-22T03:14:14.903Z,7.90
2023-04-22T03:16:41.856Z,7.90
2023-04-22T03:19:08.815Z,7.80
2023-04-22T03:21:35.712Z,7.80
2023-04-22T03:24:04.210Z,7.70
2023-04-22T03:26:37.556Z,7.70
2023-04-22T03:29:04.347Z,7.60
2023-04-22T03:31:31.290Z,7.50
2023-04-22T03:33:58.224Z,7.40
2023-04-22T03:36:25.067Z,7.40
2023-04-22T03:38:51.925Z,7.30
2023-04-22T03:41:20.124Z,7.30
2023-04-22T03:43:46.909Z,7.30
2023-04-22T03:46:13.731Z,7.20
2023-04-22T03:48:40.566Z,7.20
2023-04-22T03:51:07.420Z,7.20
2023-04-22T03:53:34.238Z,7.10
2023-04-22T03:56:01.236Z,7.10
2023-04-22T03:58:29.420Z,7.00
2023-04-22T04:00:58.424Z,6.90
2023-04-22T04:03:26.568Z,6.90
2023-04-22T04:05:54.917Z,6.90
2023-04-22T04:08:21.807Z,6.90
2023-04-22T04:10:48.764Z,6.90
2023-04-22T04:13:15.659Z,7.00
2023-04-22T04:15:44.094Z,7.00
2023-04-22T04:18:10.989Z,7.10
2023-04-22T04:20:37.867Z,7.10
2023-04-22T04:23:04.752Z,7.20
2023-04-22T04:25:31.724Z,7.20
2023-04-22T04:27:58.504Z,7.20
2023-04-22T04:30:25.649Z,7.30
2023-04-22T04:32:54.194Z,7.30
2023-04-22T04:35:21.273Z,7.30
2023-04-22T04:37:48.154Z,7.40
2023-04-22T04:40:14.991Z,7.40
2023-04-22T04:42:41.803Z,7.50
2023-04-22T04:45:09.111Z,7.50
2023-04-22T04:47:36.021Z,7.60
2023-04-22T04:50:04.841Z,7.60
2023-04-22T04:52:32.002Z,7.70
2023-04-22T04:54:59.995Z,7.70
2023-04-22T05:00:13.003Z,7.90
2023-04-22T05:02:41.845Z,7.90
2023-04-22T05:05:16.436Z,8.00
2023-04-22T05:10:25.177Z,8.20
2023-04-22T05:12:53.219Z,8.30
2023-04-22T05:15:25.986Z,8.40
2023-04-22T05:20:40.274Z,8.60
2023-04-22T05:23:07.964Z,8.80
2023-04-22T05:25:39.835Z,8.90
2023-04-22T05:28:10.814Z,9.00
2023-04-22T05:33:19.153Z,9.20
2023-04-22T05:35:49.136Z,9.30
2023-04-22T05:38:16.768Z,9.50
2023-04-22T05:40:52.497Z,9.60
2023-04-22T05:43:20.534Z,9.80
2023-04-22T05:45:56.594Z,9.90
2023-04-22T05:48:25.687Z,10.00
2023-04-22T05:51:00.113Z,10.10
2023-04-22T05:53:28.221Z,10.30
2023-04-22T05:55:57.312Z,10.40
2023-04-22T05:58:24.790Z,10.50
2023-04-22T06:00:52.442Z,10.60
2023-04-22T06:03:20.689Z,10.70
2023-04-22T06:13:56.542Z,11.10
2023-04-22T06:16:24.584Z,11.10
2023-04-22T06:18:52.300Z,11.20
2023-04-22T06:21:20.099Z,11.30
2023-04-22T06:26:34.289Z,11.50
2023-04-22T06:29:07.320Z,11.60
2023-04-22T06:31:36.387Z,11.80
2023-04-22T07:04:47.492Z,13.60
2023-04-22T07:07:14.828Z,13.70
2023-04-22T07:09:48.684Z,13.80
2023-04-22T07:15:00.811Z,13.90
2023-04-22T07:17:37.888Z,13.90
2023-04-22T07:20:07.165Z,14.00
2023-04-22T07:22:37.443Z,14.10
2023-04-22T07:30:37.864Z,14.40
2023-04-22T07:35:51.807Z,14.60
2023-04-22T07:38:19.769Z,14.60
2023-04-22T07:40:49.004Z,14.60
2023-04-22T07:48:55.149Z,14.80
2023-04-22T07:56:53.125Z,15.00
2023-04-22T07:59:32.658Z,15.10
2023-04-22T08:04:48.437Z,15.30
2023-04-22T08:12:32.571Z,15.60
2023-04-22T08:15:01.921Z,15.60
2023-04-22T08:17:39.048Z,15.70
2023-04-22T08:25:32.640Z,15.90
2023-04-22T08:27:59.450Z,16.10
2023-04-22T08:30:26.264Z,16.20
2023-04-22T08:32:53.089Z,16.30
2023-04-22T08:35:21.225Z,16.30
2023-04-22T08:37:48.028Z,16.40
2023-04-22T08:40:14.981Z,16.60
2023-04-22T08:42:43.699Z,16.70
2023-04-22T08:45:11.075Z,16.80
2023-04-22T08:47:38.916Z,17.10
2023-04-22T08:50:07.040Z,17.30
2023-04-22T08:52:35.479Z,17.50
2023-04-22T08:55:02.268Z,17.60
2023-04-22T08:57:29.537Z,17.80
2023-04-22T08:59:56.768Z,17.80
2023-04-22T09:02:24.600Z,17.90
2023-04-22T09:04:53.026Z,17.90
2023-04-22T09:07:24.072Z,17.90
2023-04-22T09:09:53.094Z,17.90
2023-04-22T09:12:19.881Z,17.90
2023-04-22T09:14:46.696Z,17.90
2023-04-22T09:17:16.023Z,18.00
2023-04-22T09:19:42.923Z,18.00
2023-04-22T09:22:10.671Z,18.10
2023-04-22T09:24:37.533Z,18.10
2023-04-22T09:27:05.964Z,18.20
2023-04-22T09:29:32.772Z,18.30
2023-04-22T09:32:00.408Z,18.40
2023-04-22T09:34:27.699Z,18.50
2023-04-22T09:36:54.447Z,18.50
2023-04-22T09:39:23.248Z,18.60
2023-04-22T09:41:54.996Z,18.70
2023-04-22T09:44:27.195Z,18.70
2023-04-22T09:46:54.537Z,18.80
2023-04-22T09:49:21.421Z,18.80
2023-04-22T09:51:49.890Z,18.80
2023-04-22T09:54:16.757Z,18.80
2023-04-22T09:56:48.072Z,18.90
2023-04-22T09:59:15.976Z,19.00
2023-04-22T10:01:44.209Z,19.10
2023-04-22T10:04:11.272Z,19.10
2023-04-22T10:06:38.254Z,19.10
2023-04-22T10:09:06.488Z,19.20
2023-04-22T10:11:34.631Z,19.30
2023-04-22T10:14:01.409Z,19.30
2023-04-22T10:16:31.379Z,19.40
2023-04-22T10:19:02.848Z,19.40
2023-04-22T10:21:31.449Z,19.50
2023-04-22T10:23:59.713Z,19.50
2023-04-22T10:26:40.330Z,19.60
2023-04-22T10:29:08.006Z,19.70
2023-04-22T10:31:37.251Z,19.80
2023-04-22T10:34:12.928Z,19.90
2023-04-22T10:37:00.185Z,19.90
2023-04-22T10:39:28.530Z,20.00
2023-04-22T10:42:07.578Z,20.10
2023-04-22T10:44:47.004Z,20.10
2023-04-22T10:47:28.335Z,20.20
2023-04-22T10:50:17.420Z,20.30
2023-04-22T10:52:49.459Z,20.40
2023-04-22T10:55:17.051Z,20.40
2023-04-22T10:57:45.488Z,20.40
2023-04-22T11:00:31.001Z,20.40
2023-04-22T11:03:13.914Z,20.60
2023-04-22T11:05:43.036Z,20.70
2023-04-22T11:08:18.978Z,20.80
2023-04-22T11:10:47.477Z,20.90
2023-04-22T11:13:16.536Z,20.90
2023-04-22T11:15:44.988Z,20.90
2023-04-22T11:18:20.739Z,20.90
2023-04-22T11:20:50.542Z,20.90
2023-04-22T11:23:23.093Z,20.80
2023-04-22T11:25:56.504Z,20.90
2023-04-22T11:28:23.790Z,21.10
2023-04-22T11:30:51.243Z,21.30
2023-04-22T11:33:19.631Z,21.60
2023-04-22T11:35:51.190Z,21.80
2023-04-22T11:38:18.332Z,22.00
2023-04-22T11:40:47.236Z,22.30
2023-04-22T11:43:16.923Z,22.40
2023-04-22T11:45:44.519Z,22.60
2023-04-22T11:48:12.044Z,22.90
2023-04-22T11:50:41.285Z,23.00
2023-04-22T11:53:16.450Z,23.10
2023-04-22T11:55:44.229Z,23.30
2023-04-22T11:58:13.761Z,23.30
2023-04-22T12:00:42.992Z,23.40
2023-04-22T12:03:15.431Z,23.70
2023-04-22T12:05:44.390Z,23.90
2023-04-22T12:08:14.953Z,24.10
2023-04-22T12:10:44.024Z,24.30
2023-04-22T12:13:17.594Z,24.10
2023-04-22T12:15:44.812Z,24.20
2023-04-22T12:18:11.713Z,24.40
2023-04-22T12:20:39.482Z,24.40
2023-04-22T12:23:11.454Z,24.60
2023-04-22T12:25:39.729Z,24.90
2023-04-22T12:28:06.536Z,25.00
2023-04-22T12:30:33.432Z,25.20
2023-04-22T12:33:00.253Z,25.30
2023-04-22T12:35:27.240Z,25.40
2023-04-22T12:37:54.134Z,25.40
2023-04-22T12:40:21.121Z,25.50
2023-04-22T12:42:49.501Z,25.70
2023-04-22T12:45:16.471Z,26.50
2023-04-22T12:47:43.462Z,27.30
2023-04-22T12:50:10.527Z,28.00
2023-04-22T12:52:37.495Z,28.30
2023-04-22T12:55:05.751Z,28.60
2023-04-22T12:57:33.108Z,29.10
2023-04-22T13:00:01.781Z,29.90
2023-04-22T13:02:28.728Z,31.30
2023-04-22T13:04:55.631Z,32.70
2023-04-22T13:07:22.482Z,34.20
2023-04-22T13:09:49.388Z,35.30
2023-04-22T13:12:16.349Z,36.50
2023-04-22T13:14:43.323Z,37.50
2023-04-22T13:17:11.645Z,38.20
2023-04-22T13:19:38.809Z,38.80
2023-04-22T13:22:05.996Z,39.10
2023-04-22T13:24:32.873Z,39.50
2023-04-22T13:26:59.869Z,39.90
2023-04-22T13:29:26.969Z,40.10
2023-04-22T13:31:53.962Z,39.90
2023-04-22T13:34:22.138Z,39.70
2023-04-22T13:36:49.066Z,39.80
2023-04-22T13:39:15.941Z,40.00
2023-04-22T13:41:43.125Z,40.40
2023-04-22T13:44:11.414Z,40.50
2023-04-22T13:46:38.493Z,40.30
2023-04-22T13:49:05.731Z,40.30
2023-04-22T13:51:34.375Z,40.70
2023-04-22T13:54:01.527Z,40.90
2023-04-22T13:56:29.133Z,40.50
2023-04-22T13:58:56.000Z,39.90
2023-04-22T14:01:23.072Z,39.20
2023-04-22T14:03:50.333Z,38.60
2023-04-22T14:06:17.239Z,38.50
2023-04-22T14:08:45.727Z,38.60
2023-04-22T14:11:12.913Z,39.10
2023-04-22T14:13:40.372Z,39.10
2023-04-22T14:16:09.662Z,40.10
2023-04-22T14:18:37.440Z,41.40
2023-04-22T14:21:05.949Z,42.80
2023-04-22T14:23:33.720Z,43.60
2023-04-22T14:26:02.033Z,44.20
2023-04-22T14:28:29.288Z,44.80
2023-04-22T14:30:56.480Z,45.40
2023-04-22T14:33:24.628Z,45.20
2023-04-22T14:35:51.913Z,45.50
2023-04-22T14:38:19.870Z,45.90
2023-04-22T14:40:47.400Z,46.10
2023-04-22T14:43:17.057Z,46.30
2023-04-22T14:45:45.349Z,45.40
2023-04-22T14:48:12.303Z,43.40
2023-04-22T14:50:39.434Z,42.40
2023-04-22T14:53:06.421Z,42.20
2023-04-22T14:55:34.137Z,42.30
2023-04-22T14:58:01.266Z,42.60
2023-04-22T15:00:29.621Z,42.60
2023-04-22T15:02:56.759Z,41.50
2023-04-22T15:05:24.221Z,40.90
2023-04-22T15:07:51.060Z,40.60
2023-04-22T15:10:18.530Z,39.60
2023-04-22T15:12:46.318Z,38.60
2023-04-22T15:15:13.754Z,37.30
2023-04-22T15:17:43.072Z,36.00
2023-04-22T15:20:10.829Z,35.00
2023-04-22T15:22:38.130Z,34.70
2023-04-22T15:25:05.833Z,34.20
2023-04-22T15:27:32.710Z,34.00
2023-04-22T15:29:59.752Z,33.90
2023-04-22T15:32:26.792Z,33.80
2023-04-22T15:34:55.140Z,33.60
2023-04-22T15:37:21.935Z,33.90
2023-04-22T15:39:48.806Z,34.40
2023-04-22T15:42:15.594Z,35.40
2023-04-22T15:44:42.610Z,36.50
2023-04-22T15:47:09.790Z,37.40
2023-04-22T15:49:36.776Z,37.90
2023-04-22T15:52:05.455Z,38.20
2023-04-22T15:54:32.457Z,37.80
2023-04-22T15:56:59.236Z,37.20
2023-04-22T15:59:26.089Z,36.60
2023-04-22T16:01:53.177Z,35.70
2023-04-22T16:04:20.305Z,34.40
2023-04-22T16:06:49.576Z,33.10
2023-04-22T16:09:18.914Z,32.10
2023-04-22T16:11:45.776Z,31.10
2023-04-22T16:14:12.662Z,30.40
2023-04-22T16:16:40.440Z,29.80
2023-04-22T16:19:07.705Z,29.60
2023-04-22T16:21:34.707Z,29.90
2023-04-22T16:24:01.586Z,30.00
2023-04-22T16:26:30.015Z,29.70
2023-04-22T16:28:56.852Z,29.30
2023-04-22T16:31:23.681Z,28.80
2023-04-22T16:33:50.847Z,28.40
2023-04-22T16:36:17.796Z,28.10
2023-04-22T16:38:44.587Z,27.80
2023-04-22T16:41:11.463Z,27.50
2023-04-22T16:43:41.084Z,27.20
2023-04-22T16:46:08.210Z,27.00
2023-04-22T16:48:35.297Z,26.80
2023-04-22T16:51:02.127Z,26.60
2023-04-22T16:56:09.753Z,26.60
2023-04-22T16:58:39.069Z,26.60
2023-04-22T17:01:06.013Z,26.70
2023-04-22T17:03:32.977Z,26.60
2023-04-22T17:05:59.777Z,26.20
2023-04-22T17:08:26.557Z,25.90
2023-04-22T17:10:53.300Z,25.60
2023-04-22T17:13:20.072Z,25.30
2023-04-22T17:15:48.204Z,25.00
2023-04-22T17:18:16.261Z,24.70
2023-04-22T17:20:43.344Z,24.40
2023-04-22T17:23:10.141Z,24.20
2023-04-22T17:25:36.930Z,23.90
2023-04-22T17:28:03.763Z,23.70
2023-04-22T17:30:30.656Z,23.40
2023-04-22T17:32:59.095Z,23.20
2023-04-22T17:35:25.988Z,23.00
2023-04-22T17:37:52.762Z,22.70
2023-04-22T17:40:19.632Z,22.50
2023-04-22T17:42:46.630Z,22.30
2023-04-22T17:45:13.616Z,22.10
2023-04-22T17:47:40.435Z,21.90
2023-04-22T17:50:09.384Z,21.70
2023-04-22T17:52:36.243Z,21.60
2023-04-22T17:55:03.228Z,21.40
2023-04-22T17:57:30.105Z,21.20
2023-04-22T17:59:56.899Z,21.10
2023-04-22T18:02:23.936Z,20.90
2023-04-22T18:04:50.875Z,20.80
2023-04-22T18:07:19.073Z,20.70
2023-04-22T18:09:45.842Z,20.50
2023-04-22T18:12:12.615Z,20.40
2023-04-22T18:14:39.428Z,20.30
2023-04-22T18:17:06.362Z,20.20
2023-04-22T18:19:33.109Z,20.10
2023-04-22T18:22:00.787Z,19.90
2023-04-22T18:24:28.965Z,19.80
2023-04-22T18:26:55.760Z,19.70
2023-04-22T18:29:22.538Z,19.60
2023-04-22T18:31:49.344Z,19.50
2023-04-22T18:34:16.175Z,19.40
2023-04-22T18:36:42.937Z,19.30
2023-04-22T18:39:09.790Z,19.30
2023-04-22T18:41:37.948Z,19.20
2023-04-22T18:44:04.787Z,19.20
2023-04-22T18:46:31.587Z,19.10
2023-04-22T18:48:58.362Z,19.10
2023-04-22T18:51:25.155Z,19.00
2023-04-22T18:53:51.935Z,18.90
2023-04-22T18:56:18.742Z,18.90
2023-04-22T18:58:47.062Z,18.90
2023-04-22T19:01:14.097Z,18.80
2023-04-22T19:03:41.227Z,18.80
2023-04-22T19:06:08.239Z,18.80
2023-04-22T19:08:35.094Z,18.70
2023-04-22T19:11:01.918Z,18.80
2023-04-22T19:13:30.154Z,18.80
2023-04-22T19:15:58.684Z,18.80
2023-04-22T19:18:25.764Z,18.70
2023-04-22T19:20:52.588Z,18.70
2023-04-22T19:23:19.443Z,18.70
2023-04-22T19:25:46.277Z,18.70
2023-04-22T19:28:13.064Z,18.60
2023-04-22T19:30:39.879Z,18.60
2023-04-22T19:33:08.258Z,18.60
2023-04-22T19:35:35.012Z,18.60
2023-04-22T19:38:01.753Z,18.60
2023-04-22T19:40:28.868Z,18.50
2023-04-22T19:42:55.629Z,18.50
2023-04-22T19:45:22.573Z,18.40
2023-04-22T19:47:49.956Z,18.40
2023-04-22T19:50:18.870Z,18.40
2023-04-22T19:52:46.380Z,18.30
2023-04-22T19:55:13.589Z,18.10
2023-04-22T19:57:40.613Z,18.00
2023-04-22T20:00:09.344Z,18.00
2023-04-22T20:02:37.089Z,17.90
2023-04-22T20:05:05.147Z,17.80
2023-04-22T20:07:33.844Z,17.80
2023-04-22T20:10:02.157Z,17.70
2023-04-22T20:12:29.411Z,17.60
2023-04-22T20:14:56.699Z,17.50
2023-04-22T20:17:24.081Z,17.50
2023-04-22T20:19:51.170Z,17.40
2023-04-22T20:22:18.898Z,17.30
2023-04-22T20:24:49.397Z,17.20
2023-04-22T20:27:16.515Z,17.20
2023-04-22T20:29:44.912Z,17.10
2023-04-22T20:32:11.967Z,17.00
2023-04-22T20:34:39.267Z,17.00
2023-04-22T20:37:06.544Z,17.00
2023-04-22T20:39:34.831Z,16.90
2023-04-22T20:42:03.420Z,16.80
2023-04-22T20:44:30.147Z,16.80
2023-04-22T20:46:56.911Z,16.70
2023-04-22T20:49:23.729Z,16.60
2023-04-22T20:51:50.483Z,16.50
2023-04-22T20:54:27.725Z,16.50
2023-04-22T20:56:55.048Z,16.40
2023-04-22T20:59:23.197Z,16.40
2023-04-22T21:01:51.203Z,16.40
2023-04-22T21:04:18.312Z,16.30
2023-04-22T21:06:48.481Z,16.30
2023-04-22T21:09:15.993Z,16.20
2023-04-22T21:11:43.361Z,16.20
2023-04-22T21:14:11.421Z,16.10
2023-04-22T21:16:42.702Z,16.10
2023-04-22T21:19:09.702Z,16.00
2023-04-22T21:21:37.531Z,15.90
2023-04-22T21:24:05.106Z,15.90
2023-04-22T21:26:32.352Z,15.80
2023-04-22T21:28:59.484Z,15.70
2023-04-22T21:31:26.333Z,15.70
2023-04-22T21:33:54.901Z,15.60
2023-04-22T21:36:21.630Z,15.60
2023-04-22T21:38:48.774Z,15.60
2023-04-22T21:41:15.687Z,15.60
2023-04-22T21:43:42.459Z,15.60
2023-04-22T21:46:09.445Z,15.50
2023-04-22T21:48:36.212Z,15.50
2023-04-22T21:51:04.512Z,15.50
2023-04-22T21:53:31.308Z,15.40
2023-04-22T21:55:58.256Z,15.40
2023-04-22T21:58:25.059Z,15.30
2023-04-22T22:00:51.901Z,15.20
2023-04-22T22:03:18.768Z,15.10
2023-04-22T22:05:45.633Z,15.10
2023-04-22T22:08:13.756Z,15.00
2023-04-22T22:10:40.544Z,14.90
2023-04-22T22:13:07.277Z,14.90
2023-04-22T22:15:34.076Z,14.80
2023-04-22T22:18:00.911Z,14.90
2023-04-22T22:20:27.851Z,14.90
2023-04-22T22:22:54.635Z,14.90
2023-04-22T22:25:22.880Z,15.00
2023-04-22T22:27:49.753Z,15.00
2023-04-22T22:30:17.376Z,15.00
2023-04-22T22:32:44.535Z,15.00
2023-04-22T22:35:11.517Z,15.00
2023-04-22T22:37:38.448Z,15.00
2023-04-22T22:40:06.514Z,15.00
2023-04-22T22:42:34.627Z,15.00
2023-04-22T22:45:01.482Z,15.00
2023-04-22T22:47:28.377Z,15.10
2023-04-22T22:49:55.195Z,15.10
2023-04-22T22:52:22.309Z,15.00
2023-04-22T22:54:49.634Z,15.00
2023-04-22T22:57:16.637Z,15.00
2023-04-22T22:59:44.917Z,15.00
2023-04-22T23:02:12.298Z,15.00
2023-04-22T23:04:40.658Z,14.90
2023-04-22T23:07:07.995Z,15.00
2023-04-22T23:09:34.942Z,15.00
2023-04-22T23:12:01.888Z,15.00
2023-04-22T23:14:28.777Z,15.00
2023-04-22T23:16:57.286Z,15.00
2023-04-22T23:19:25.237Z,14.90
2023-04-22T23:21:54.117Z,15.00
2023-04-22T23:24:21.440Z,15.00
2023-04-22T23:26:48.664Z,14.90
2023-04-22T23:29:16.041Z,14.90
2023-04-22T23:31:44.014Z,14.90
2023-04-22T23:34:14.939Z,14.90
2023-04-22T23:36:43.011Z,14.90
2023-04-22T23:39:09.919Z,14.80
2023-04-22T23:41:36.814Z,14.80
2023-04-22T23:44:03.644Z,14.80
2023-04-22T23:46:30.577Z,14.80
2023-04-22T23:48:57.515Z,14.70
2023-04-22T23:51:25.669Z,14.70
2023-04-22T23:53:52.484Z,14.70
2023-04-22T23:56:19.762Z,14.70
2023-04-22T23:58:47.166Z,14.60
